createdAt,value
2022-12-13T00:02:27.167Z,12.70
2022-12-13T00:04:55.453Z,11.68
2022-12-13T00:07:24.531Z,12.52
2022-12-13T00:09:53.565Z,12.43
2022-12-13T00:12:23.870Z,12.50
2022-12-13T00:15:03.580Z,12.10
2022-12-13T00:17:35.907Z,12.35
2022-12-13T00:20:04.980Z,13.05
2022-12-13T00:25:06.406Z,13.48
2022-12-13T00:27:43.075Z,13.43
2022-12-13T00:30:13.391Z,12.38
2022-12-13T00:32:41.364Z,11.85
2022-12-13T00:35:12.524Z,11.75
2022-12-13T00:37:41.298Z,11.30
2022-12-13T00:40:12.311Z,13.60
2022-12-13T00:42:40.753Z,11.88
2022-12-13T00:45:15.933Z,12.38
2022-12-13T00:50:35.819Z,11.27
2022-12-13T00:53:04.024Z,11.73
2022-12-13T00:55:35.340Z,11.77
2022-12-13T00:58:03.174Z,11.15
2022-12-13T01:00:34.813Z,12.32
2022-12-13T01:03:20.921Z,11.43
2022-12-13T01:06:14.356Z,11.40
2022-12-13T01:08:38.869Z,12.15
2022-12-13T01:11:07.848Z,11.80
2022-12-13T01:13:36.326Z,12.27
2022-12-13T01:16:09.543Z,12.27
2022-12-13T01:21:16.129Z,13.88
2022-12-13T01:23:45.808Z,12.75
2022-12-13T01:26:17.006Z,12.70
2022-12-13T01:28:44.636Z,12.23
2022-12-13T01:31:17.824Z,12.43
2022-12-13T01:33:45.864Z,11.25
2022-12-13T01:36:27.301Z,11.20
2022-12-13T01:38:58.777Z,11.48
2022-12-13T01:41:29.110Z,11.25
2022-12-13T01:44:03.930Z,10.88
2022-12-13T01:46:37.895Z,11.43
2022-12-13T01:49:20.330Z,10.98
2022-12-13T01:51:57.085Z,10.95
2022-12-13T01:54:46.668Z,10.57
2022-12-13T01:57:21.397Z,11.15
2022-12-13T01:59:52.627Z,10.77
2022-12-13T02:02:27.495Z,10.23
2022-12-13T02:05:16.743Z,11.18
2022-12-13T02:07:53.927Z,10.85
2022-12-13T02:10:21.920Z,9.77
2022-12-13T02:12:49.943Z,11.10
2022-12-13T02:15:20.607Z,10.20
2022-12-13T02:17:58.357Z,10.02
2022-12-13T02:20:53.658Z,9.25
2022-12-13T02:24:08.944Z,10.05
2022-12-13T02:26:55.827Z,10.10
2022-12-13T02:30:13.587Z,10.38
2022-12-13T02:33:12.017Z,9.85
2022-12-13T02:36:12.849Z,10.20
2022-12-13T02:39:03.913Z,9.98
2022-12-13T02:41:37.830Z,10.02
2022-12-13T02:44:23.444Z,9.80
2022-12-13T02:46:58.562Z,9.20
2022-12-13T02:49:33.694Z,8.80
2022-12-13T02:52:02.334Z,9.18
2022-12-13T02:54:32.270Z,8.82
2022-12-13T02:57:02.602Z,8.07
2022-12-13T02:59:41.545Z,7.72
2022-12-13T03:03:08.274Z,8.52
2022-12-13T03:06:34.168Z,7.55
2022-12-13T03:09:20.554Z,8.07
2022-12-13T03:12:12.648Z,8.13
2022-12-13T03:15:01.277Z,9.25
2022-12-13T03:17:37.860Z,7.97
2022-12-13T03:20:12.581Z,9.43
2022-12-13T03:22:59.360Z,10.85
2022-12-13T03:25:32.805Z,10.18
2022-12-13T03:30:44.931Z,9.40
2022-12-13T03:33:13.720Z,9.82
2022-12-13T03:35:45.821Z,11.38
2022-12-13T03:38:21.825Z,12.18
2022-12-13T03:40:56.500Z,11.80
2022-12-13T03:43:28.647Z,9.80
2022-12-13T03:45:56.829Z,10.63
2022-12-13T03:51:14.520Z,10.18
2022-12-13T03:53:46.846Z,8.80
2022-12-13T03:56:16.259Z,7.95
2022-12-13T03:58:44.910Z,6.85
2022-12-13T04:01:16.964Z,6.20
2022-12-13T04:03:48.504Z,6.10
2022-12-13T04:06:22.526Z,4.70
2022-12-13T04:08:52.398Z,4.97
2022-12-13T04:11:42.584Z,5.20
2022-12-13T04:14:22.814Z,4.50
2022-12-13T04:16:53.218Z,4.28
2022-12-13T04:19:23.252Z,5.03
2022-12-13T04:21:54.425Z,5.53
2022-12-13T04:24:31.845Z,5.70
2022-12-13T04:27:02.419Z,5.45
2022-12-13T04:29:34.198Z,5.65
2022-12-13T04:32:26.929Z,5.63
2022-12-13T04:35:12.534Z,5.60
2022-12-13T04:37:43.377Z,6.10
2022-12-13T04:40:11.912Z,5.70
2022-12-13T04:42:39.417Z,6.13
2022-12-13T04:45:09.619Z,6.53
2022-12-13T04:47:37.639Z,6.28
2022-12-13T04:50:05.557Z,7.15
2022-12-13T04:52:32.973Z,6.97
2022-12-13T04:55:00.232Z,7.10
2022-12-13T04:57:28.333Z,7.30
2022-12-13T04:59:55.529Z,7.03
2022-12-13T05:02:23.572Z,6.53
2022-12-13T05:04:53.770Z,7.38
2022-12-13T05:07:22.967Z,7.38
2022-12-13T05:09:50.219Z,7.43
2022-12-13T05:12:23.042Z,6.88
2022-12-13T05:14:52.191Z,7.13
2022-12-13T05:17:19.867Z,6.93
2022-12-13T05:19:47.237Z,7.18
2022-12-13T05:22:20.677Z,6.80
2022-12-13T05:24:49.113Z,7.45
2022-12-13T05:27:25.130Z,7.15
2022-12-13T05:30:05.257Z,6.95
2022-12-13T05:32:43.776Z,7.60
2022-12-13T05:35:22.538Z,8.00
2022-12-13T05:37:55.498Z,6.97
2022-12-13T05:40:28.592Z,7.55
2022-12-13T05:43:01.683Z,7.47
2022-12-13T05:45:31.183Z,7.60
2022-12-13T05:47:58.807Z,7.50
2022-12-13T05:50:26.331Z,7.25
2022-12-13T05:52:53.719Z,7.32
2022-12-13T05:55:21.698Z,7.72
2022-12-13T05:57:50.998Z,7.43
2022-12-13T06:00:29.322Z,7.13
2022-12-13T06:03:00.717Z,7.28
2022-12-13T06:05:30.671Z,7.10
2022-12-13T06:07:59.043Z,6.78
2022-12-13T06:10:34.382Z,6.90
2022-12-13T06:13:21.855Z,7.63
2022-12-13T06:16:01.441Z,6.97
2022-12-13T06:18:33.074Z,6.82
2022-12-13T06:21:05.937Z,6.80
2022-12-13T06:23:35.484Z,6.82
2022-12-13T06:26:08.208Z,7.07
2022-12-13T06:28:35.910Z,7.07
2022-12-13T06:31:05.361Z,7.10
2022-12-13T06:33:36.924Z,7.03
2022-12-13T06:36:05.117Z,6.53
2022-12-13T06:38:33.280Z,6.90
2022-12-13T06:41:12.790Z,6.90
2022-12-13T06:43:46.400Z,6.57
2022-12-13T06:46:15.076Z,6.45
2022-12-13T06:48:42.475Z,5.65
2022-12-13T06:51:11.683Z,6.07
2022-12-13T06:53:41.471Z,6.57
2022-12-13T06:56:14.262Z,6.35
2022-12-13T06:58:43.020Z,8.40
2022-12-13T07:01:24.618Z,8.02
2022-12-13T07:03:56.161Z,6.05
2022-12-13T07:06:25.242Z,6.07
2022-12-13T07:08:57.537Z,5.50
2022-12-13T07:11:28.762Z,9.75
2022-12-13T07:13:56.985Z,9.88
2022-12-13T07:16:25.537Z,10.95
2022-12-13T07:19:01.648Z,10.85
2022-12-13T07:21:33.236Z,8.30
2022-12-13T07:24:02.267Z,6.18
2022-12-13T07:26:29.915Z,5.35
2022-12-13T07:28:57.559Z,5.55
2022-12-13T07:31:26.949Z,5.10
2022-12-13T07:33:55.283Z,6.25
2022-12-13T07:36:24.222Z,7.35
2022-12-13T07:38:57.023Z,7.75
2022-12-13T07:41:27.466Z,6.53
2022-12-13T07:43:56.348Z,6.93
2022-12-13T07:46:31.830Z,6.80
2022-12-13T07:49:03.103Z,7.70
2022-12-13T07:51:31.525Z,10.02
2022-12-13T07:53:59.146Z,6.88
2022-12-13T07:56:26.445Z,6.97
2022-12-13T07:58:54.807Z,7.03
2022-12-13T08:01:23.565Z,7.20
2022-12-13T08:03:51.697Z,7.55
2022-12-13T08:06:21.502Z,9.93
2022-12-13T08:08:51.328Z,17.33
2022-12-13T08:11:18.727Z,5.80
2022-12-13T08:13:45.949Z,4.88
2022-12-13T08:16:27.597Z,5.00
2022-12-13T08:19:02.078Z,5.25
2022-12-13T08:21:56.637Z,5.85
2022-12-13T08:24:30.312Z,4.88
2022-12-13T08:27:03.456Z,5.25
2022-12-13T08:29:36.185Z,5.82
2022-12-13T08:32:10.620Z,5.50
2022-12-13T08:34:40.177Z,5.07
2022-12-13T08:37:07.728Z,5.55
2022-12-13T08:39:38.168Z,5.28
2022-12-13T08:42:18.241Z,5.80
2022-12-13T08:44:55.055Z,5.57
2022-12-13T08:47:27.183Z,6.30
2022-12-13T09:11:59.389Z,5.10
2022-12-13T09:14:51.684Z,4.90
2022-12-13T09:17:23.998Z,5.00
2022-12-13T09:19:58.052Z,5.45
2022-12-13T09:22:35.033Z,5.28
2022-12-13T09:25:05.574Z,4.53
2022-12-13T09:27:39.662Z,5.22
2022-12-13T09:30:22.940Z,5.72
2022-12-13T09:33:18.165Z,5.50
2022-12-13T09:35:49.662Z,5.15
2022-12-13T09:38:18.280Z,5.43
2022-12-13T09:43:42.508Z,5.63
2022-12-13T09:46:44.951Z,5.03
2022-12-13T09:49:35.168Z,5.03
2022-12-13T09:52:21.499Z,5.18
2022-12-13T09:54:56.895Z,5.07
2022-12-13T09:57:34.388Z,5.05
2022-12-13T10:00:08.642Z,5.00
2022-12-13T10:03:06.674Z,5.20
2022-12-13T10:05:39.885Z,5.25
2022-12-13T10:08:17.261Z,5.22
2022-12-13T10:10:48.877Z,5.72
2022-12-13T10:13:46.015Z,5.63
2022-12-13T10:16:23.212Z,5.85
2022-12-13T10:18:52.850Z,42.40
2022-12-13T10:21:43.225Z,7.10
2022-12-13T10:24:36.252Z,12.63
2022-12-13T10:27:40.939Z,6.63
2022-12-13T10:30:13.711Z,5.93
2022-12-13T10:32:56.585Z,5.95
2022-12-13T10:35:37.304Z,5.47
2022-12-13T10:38:37.288Z,5.57
2022-12-13T10:41:32.407Z,5.72
2022-12-13T10:44:21.356Z,6.20
2022-12-13T10:47:16.839Z,5.88
2022-12-13T10:50:00.292Z,6.00
2022-12-13T10:52:43.520Z,6.03
2022-12-13T10:55:35.013Z,5.80
2022-12-13T10:58:20.527Z,5.82
2022-12-13T11:00:51.201Z,6.00
2022-12-13T11:03:44.321Z,6.15
2022-12-13T11:06:26.472Z,5.13
2022-12-13T11:11:47.039Z,6.32
2022-12-13T11:14:16.064Z,5.80
2022-12-13T11:16:49.987Z,5.90
2022-12-13T11:19:25.619Z,6.20
2022-12-13T11:21:54.599Z,6.18
2022-12-13T11:24:33.165Z,6.28
2022-12-13T11:27:29.038Z,6.28
2022-12-13T11:30:19.630Z,6.78
2022-12-13T11:32:59.438Z,6.43
2022-12-13T11:35:36.608Z,6.95
2022-12-13T11:39:01.746Z,6.55
2022-12-13T11:41:40.990Z,6.60
2022-12-13T11:44:24.773Z,6.90
2022-12-13T11:47:01.173Z,6.50
2022-12-13T11:49:41.043Z,6.15
2022-12-13T11:52:39.447Z,6.85
2022-12-13T11:55:34.554Z,6.22
2022-12-13T11:58:10.276Z,6.38
2022-12-13T12:01:05.101Z,6.55
2022-12-13T12:04:07.288Z,5.80
2022-12-13T12:06:50.753Z,5.97
2022-12-13T12:09:22.627Z,6.72
2022-12-13T12:12:02.440Z,5.82
2022-12-13T12:20:23.960Z,6.47
2022-12-13T12:23:21.130Z,6.43
2022-12-13T12:25:58.292Z,6.18
2022-12-13T12:28:53.740Z,6.20
2022-12-13T12:31:56.083Z,5.93
2022-12-13T12:34:42.163Z,6.45
2022-12-13T12:37:28.566Z,7.00
2022-12-13T12:40:23.703Z,6.30
2022-12-13T12:43:34.881Z,6.15
2022-12-13T12:47:01.344Z,6.22
2022-12-13T12:50:01.768Z,6.18
2022-12-13T12:53:02.352Z,6.70
2022-12-13T12:56:08.078Z,6.38
2022-12-13T12:58:47.836Z,6.60
2022-12-13T13:01:52.077Z,6.25
2022-12-13T13:04:31.822Z,6.32
2022-12-13T13:07:24.075Z,6.03
2022-12-13T13:09:57.977Z,6.20
2022-12-13T13:12:48.448Z,6.15
2022-12-13T13:15:33.994Z,6.32
2022-12-13T13:18:02.257Z,6.18
2022-12-13T15:04:46.390Z,28.15
2022-12-13T15:08:18.783Z,27.50
2022-12-13T15:17:43.198Z,16.55
2022-12-13T15:20:31.010Z,16.08
2022-12-13T15:23:21.126Z,13.70
2022-12-13T15:26:00.302Z,13.43
2022-12-13T15:28:32.211Z,15.95
2022-12-13T15:31:01.947Z,17.88
2022-12-13T15:33:34.395Z,13.65
2022-12-13T15:36:18.177Z,16.40
2022-12-13T15:38:57.419Z,14.23
2022-12-13T15:41:37.189Z,14.77
2022-12-13T15:44:25.467Z,17.55
2022-12-13T15:47:27.895Z,16.70
2022-12-13T15:49:57.681Z,14.93
2022-12-13T15:52:28.485Z,14.52
2022-12-13T15:55:11.019Z,15.50
2022-12-13T15:57:57.456Z,14.23
2022-12-13T16:00:34.595Z,14.77
2022-12-13T16:03:12.785Z,15.88
2022-12-13T16:05:51.724Z,16.05
2022-12-13T16:08:38.509Z,17.27
2022-12-13T16:11:08.235Z,17.42
2022-12-13T16:13:38.349Z,17.63
2022-12-13T16:16:30.723Z,17.33
2022-12-13T16:19:01.533Z,16.00
2022-12-13T16:21:30.424Z,15.80
2022-12-13T16:23:57.672Z,15.35
2022-12-13T16:26:28.575Z,18.48
2022-12-13T16:29:00.550Z,17.30
2022-12-13T16:31:35.460Z,17.77
2022-12-13T16:34:07.206Z,17.98
2022-12-13T16:36:34.555Z,17.40
2022-12-13T16:39:02.129Z,17.73
2022-12-13T16:41:29.558Z,17.90
2022-12-13T16:44:03.454Z,19.77
2022-12-13T16:47:17.353Z,17.73
2022-12-13T16:49:28.171Z,19.20
2022-12-13T16:51:59.979Z,21.45
2022-12-13T16:54:27.593Z,21.52
2022-12-13T16:56:56.372Z,21.00
2022-12-13T16:59:26.685Z,28.92
2022-12-13T17:01:54.959Z,23.00
2022-12-13T17:04:25.693Z,27.70
2022-12-13T17:06:54.919Z,25.25
2022-12-13T17:09:25.327Z,27.45
2022-12-13T17:11:52.979Z,26.38
2022-12-13T17:14:23.457Z,24.83
2022-12-13T17:16:50.923Z,25.08
2022-12-13T17:19:18.706Z,24.48
2022-12-13T17:21:46.225Z,26.67
2022-12-13T17:24:13.851Z,31.13
2022-12-13T17:26:41.623Z,27.00
2022-12-13T17:29:25.517Z,47.55
2022-12-13T17:31:53.570Z,39.28
2022-12-13T17:34:21.329Z,26.42
2022-12-13T17:36:48.903Z,23.45
2022-12-13T17:39:16.619Z,23.73
2022-12-13T17:41:44.296Z,24.88
2022-12-13T17:44:23.084Z,23.38
2022-12-13T17:46:54.739Z,24.17
2022-12-13T17:49:23.392Z,25.60
2022-12-13T17:51:56.530Z,24.05
2022-12-13T17:54:26.790Z,27.50
2022-12-13T17:56:55.501Z,30.05
2022-12-13T17:59:24.050Z,30.10
2022-12-13T18:01:52.284Z,34.92
2022-12-13T18:04:21.169Z,32.80
2022-12-13T18:06:50.141Z,31.55
2022-12-13T18:09:18.022Z,29.27
2022-12-13T18:11:45.872Z,29.80
2022-12-13T18:14:13.462Z,25.60
2022-12-13T18:16:41.458Z,22.73
2022-12-13T18:19:12.797Z,23.83
2022-12-13T18:21:46.331Z,22.80
2022-12-13T18:24:14.620Z,22.08
2022-12-13T18:26:42.410Z,26.40
2022-12-13T18:29:10.329Z,32.92
2022-12-13T18:31:38.084Z,24.60
2022-12-13T18:34:06.715Z,25.00
2022-12-13T18:36:35.097Z,26.45
2022-12-13T18:39:04.089Z,25.42
2022-12-13T18:41:34.218Z,24.45
2022-12-13T18:44:05.739Z,25.40
2022-12-13T18:46:36.549Z,28.10
2022-12-13T18:49:06.895Z,25.98
2022-12-13T18:51:35.348Z,27.35
2022-12-13T18:54:02.928Z,27.33
2022-12-13T18:56:31.774Z,37.90
2022-12-13T18:58:59.983Z,41.08
2022-12-13T19:01:28.250Z,47.38
2022-12-13T19:03:56.352Z,48.03
2022-12-13T19:06:26.736Z,38.85
2022-12-13T19:08:58.033Z,34.38
2022-12-13T19:11:31.007Z,31.42
2022-12-13T19:13:58.580Z,28.48
2022-12-13T19:16:27.690Z,29.50
2022-12-13T19:18:55.687Z,33.63
2022-12-13T19:21:26.612Z,30.33
2022-12-13T19:23:57.742Z,23.73
2022-12-13T19:26:28.632Z,25.27
2022-12-13T19:28:58.720Z,25.00
2022-12-13T19:31:31.509Z,28.05
2022-12-13T19:34:01.106Z,25.73
2022-12-13T19:36:33.506Z,28.52
2022-12-13T19:39:01.585Z,31.60
2022-12-13T19:41:33.727Z,34.42
2022-12-13T19:44:07.208Z,29.48
2022-12-13T19:46:35.177Z,29.52
2022-12-13T19:49:02.766Z,29.17
2022-12-13T19:51:34.399Z,30.02
2022-12-13T19:54:05.574Z,31.75
2022-12-13T19:56:33.500Z,31.85
2022-12-13T19:59:04.010Z,33.42
2022-12-13T20:01:32.060Z,32.17
2022-12-13T20:03:59.651Z,34.22
2022-12-13T20:06:27.630Z,36.05
2022-12-13T20:08:56.002Z,35.33
2022-12-13T20:11:25.105Z,34.55
2022-12-13T20:13:57.095Z,28.98
2022-12-13T20:16:27.493Z,29.45
2022-12-13T20:19:00.576Z,29.88
2022-12-13T20:21:29.927Z,30.17
2022-12-13T20:23:58.116Z,31.23
2022-12-13T20:26:29.911Z,29.83
2022-12-13T20:28:57.583Z,30.75
2022-12-13T20:31:32.429Z,32.00
2022-12-13T20:34:04.527Z,31.20
2022-12-13T20:36:33.417Z,31.13
2022-12-13T20:39:05.737Z,34.08
2022-12-13T20:41:46.359Z,34.22
2022-12-13T20:44:14.356Z,32.47
2022-12-13T20:46:42.338Z,34.80
2022-12-13T20:49:10.292Z,35.25
2022-12-13T20:51:42.753Z,34.67
2022-12-13T20:54:10.899Z,35.58
2022-12-13T20:56:39.745Z,39.38
2022-12-13T20:59:16.046Z,37.30
2022-12-13T21:01:48.800Z,33.88
2022-12-13T21:04:17.157Z,48.37
2022-12-13T21:06:44.851Z,40.42
2022-12-13T21:09:13.856Z,40.17
2022-12-13T21:11:47.089Z,38.33
2022-12-13T21:14:23.072Z,35.38
2022-12-13T21:17:00.283Z,32.53
2022-12-13T21:19:37.477Z,30.67
2022-12-13T21:22:07.489Z,33.13
2022-12-13T21:24:35.249Z,31.88
2022-12-13T21:27:02.912Z,30.65
2022-12-13T21:29:30.441Z,32.47
2022-12-13T21:31:58.079Z,29.25
2022-12-13T21:34:25.723Z,30.42
2022-12-13T21:36:54.081Z,30.10
2022-12-13T21:39:29.770Z,32.10
2022-12-13T21:41:58.122Z,30.42
2022-12-13T21:44:25.960Z,32.67
2022-12-13T21:49:41.517Z,34.90
2022-12-13T21:52:09.210Z,36.58
2022-12-13T21:54:37.501Z,34.60
2022-12-13T21:57:24.320Z,37.13
2022-12-13T21:59:52.084Z,35.08
2022-12-13T22:02:20.095Z,35.72
2022-12-13T22:04:48.854Z,36.17
2022-12-13T22:07:22.167Z,35.25
2022-12-13T22:09:51.539Z,35.90
2022-12-13T22:12:25.054Z,36.03
2022-12-13T22:14:54.069Z,36.80
2022-12-13T22:17:33.046Z,40.22
2022-12-13T22:20:04.025Z,38.45
2022-12-13T22:22:32.370Z,41.55
2022-12-13T22:25:00.174Z,38.97
2022-12-13T22:27:27.888Z,40.80
2022-12-13T22:29:57.846Z,41.78
2022-12-13T22:32:31.401Z,41.20
2022-12-13T22:34:59.410Z,41.38
2022-12-13T22:37:28.069Z,41.47
2022-12-13T22:39:55.563Z,39.05
2022-12-13T22:42:23.214Z,40.15
2022-12-13T22:44:51.126Z,38.45
2022-12-13T22:47:18.687Z,37.80
2022-12-13T22:49:48.471Z,40.90
2022-12-13T22:52:16.520Z,36.88
2022-12-13T22:54:45.348Z,39.35
2022-12-13T22:57:13.016Z,41.15
2022-12-13T22:59:40.574Z,40.17
2022-12-13T23:02:10.044Z,38.90
2022-12-13T23:04:37.942Z,40.33
2022-12-13T23:07:05.369Z,40.58
2022-12-13T23:09:32.874Z,42.78
2022-12-13T23:12:19.009Z,42.92
2022-12-13T23:14:46.531Z,40.13
2022-12-13T23:17:13.987Z,38.45
2022-12-13T23:19:50.168Z,39.33
2022-12-13T23:22:25.696Z,39.88
2022-12-13T23:24:54.063Z,39.72
2022-12-13T23:27:23.856Z,37.83
2022-12-13T23:29:51.510Z,38.92
2022-12-13T23:32:19.383Z,41.83
2022-12-13T23:34:46.985Z,42.38
2022-12-13T23:37:17.621Z,43.50
2022-12-13T23:39:45.165Z,39.95
2022-12-13T23:42:12.685Z,39.88
2022-12-13T23:44:40.248Z,35.17
2022-12-13T23:47:07.711Z,33.55
2022-12-13T23:49:35.237Z,34.22
2022-12-13T23:52:02.816Z,33.13
2022-12-13T23:54:32.765Z,32.60
2022-12-13T23:57:02.908Z,29.77
2022-12-13T23:59:30.385Z,33.38
